Time,TemperatureF,DewpointF,PressureIn,WindDirection,WindDirectionDegrees,WindSpeedMPH,WindSpeedGustMPH,Humidity,HourlyPrecipIn,Conditions,Clouds,dailyrainin,SoftwareType,DateUTC
2013-03-24 00:04:00,29.6,25.4,30.08,NW,324,2.0,2.0,84,0.00,,,0.00,Wunderground v.1.15,2013-03-24 05:04:00,
2013-03-24 00:10:00,29.6,25.4,30.08,NNE,33,1.0,2.0,84,0.00,,,0.00,Wunderground v.1.15,2013-03-24 05:10:00,
2013-03-24 00:16:00,29.6,25.4,30.08,North,11,1.0,2.0,84,0.00,,,0.00,Wunderground v.1.15,2013-03-24 05:16:00,
2013-03-24 00:22:00,29.6,25.4,30.08,NNE,21,1.0,3.0,84,0.00,,,0.00,Wunderground v.1.15,2013-03-24 05:22:00,
2013-03-24 00:28:00,29.6,25.4,30.08,NE,48,1.0,3.0,84,0.00,,,0.00,Wunderground v.1.15,2013-03-24 05:28:00,
2013-03-24 00:34:00,29.5,25.3,30.08,NNE,26,1.0,3.0,84,0.00,,,0.00,Wunderground v.1.15,2013-03-24 05:34:00,
2013-03-24 00:40:00,29.3,25.1,30.08,ENE,66,1.0,2.0,84,0.00,,,0.00,Wunderground v.1.15,2013-03-24 05:40:00,
2013-03-24 00:48:00,29.1,24.9,30.08,NNE,15,1.0,2.0,84,0.00,,,0.00,Wunderground v.1.15,2013-03-24 05:48:00,
2013-03-24 00:54:00,29.0,24.8,30.07,NNW,337,2.0,4.0,84,0.00,,,0.00,Wunderground v.1.15,2013-03-24 05:54:00,
2013-03-24 01:00:00,28.9,24.7,30.07,NNW,330,2.0,2.0,84,0.00,,,0.00,Wunderground v.1.15,2013-03-24 06:00:00,
2013-03-24 01:08:00,28.8,24.6,30.07,ENE,70,2.0,2.0,84,0.00,,,0.00,Wunderground v.1.15,2013-03-24 06:08:00,
2013-03-24 01:14:00,28.6,24.4,30.07,NNE,16,2.0,3.0,84,0.00,,,0.00,Wunderground v.1.15,2013-03-24 06:14:00,
2013-03-24 01:20:00,28.6,24.7,30.07,North,356,2.0,2.0,85,0.00,,,0.00,Wunderground v.1.15,2013-03-24 06:20:00,
2013-03-24 01:28:00,28.5,24.3,30.07,WNW,290,1.0,2.0,84,0.00,,,0.00,Wunderground v.1.15,2013-03-24 06:28:00,
2013-03-24 01:34:00,28.5,24.6,30.07,NNE,16,2.0,2.0,85,0.00,,,0.00,Wunderground v.1.15,2013-03-24 06:34:00,
2013-03-24 01:40:00,28.4,24.5,30.07,NNE,21,2.0,2.0,85,0.00,,,0.00,Wunderground v.1.15,2013-03-24 06:40:00,
2013-03-24 01:46:00,28.3,24.4,30.06,NNW,338,1.0,2.0,85,0.00,,,0.00,Wunderground v.1.15,2013-03-24 06:46:00,
2013-03-24 01:52:00,28.3,24.4,30.07,WNW,287,1.0,2.0,85,0.00,,,0.00,Wunderground v.1.15,2013-03-24 06:52:00,
2013-03-24 01:58:00,28.3,24.4,30.07,NE,36,1.0,2.0,85,0.00,,,0.00,Wunderground v.1.15,2013-03-24 06:58:00,
2013-03-24 02:04:00,28.2,24.3,30.07,NNE,18,1.0,3.0,85,0.00,,,0.00,Wunderground v.1.15,2013-03-24 07:04:00,
2013-03-24 02:10:00,28.2,24.3,30.07,NNE,15,2.0,2.0,85,0.00,,,0.00,Wunderground v.1.15,2013-03-24 07:10:00,
2013-03-24 02:18:00,28.2,24.6,30.07,NNE,24,1.0,2.0,86,0.00,,,0.00,Wunderground v.1.15,2013-03-24 07:18:00,
2013-03-24 02:24:00,28.1,24.2,30.07,North,8,1.0,1.0,85,0.00,,,0.00,Wunderground v.1.15,2013-03-24 07:24:00,
2013-03-24 02:30:00,28.1,24.5,30.07,North,360,1.0,4.0,86,0.00,,,0.00,Wunderground v.1.15,2013-03-24 07:30:00,
2013-03-24 02:38:00,28.1,24.2,30.06,NNW,336,1.0,4.0,85,0.00,,,0.00,Wunderground v.1.15,2013-03-24 07:38:00,
2013-03-24 02:44:00,28.1,24.5,30.06,North,11,1.0,2.0,86,0.00,,,0.00,Wunderground v.1.15,2013-03-24 07:44:00,
2013-03-24 02:50:00,28.1,24.2,30.06,North,349,1.0,1.0,85,0.00,,,0.00,Wunderground v.1.15,2013-03-24 07:50:00,
2013-03-24 02:58:00,28.1,24.2,30.06,ENE,64,1.0,3.0,85,0.00,,,0.00,Wunderground v.1.15,2013-03-24 07:58:00,
2013-03-24 03:04:00,28.1,24.2,30.05,NW,316,1.0,2.0,85,0.00,,,0.00,Wunderground v.1.15,2013-03-24 08:04:00,
2013-03-24 03:10:00,28.1,24.2,30.05,ENE,58,1.0,1.0,85,0.00,,,0.00,Wunderground v.1.15,2013-03-24 08:10:00,
2013-03-24 03:16:00,28.1,24.2,30.05,NNW,344,1.0,1.0,85,0.00,,,0.00,Wunderground v.1.15,2013-03-24 08:16:00,
2013-03-24 03:22:00,28.1,24.2,30.05,North,8,1.0,1.0,85,0.00,,,0.00,Wunderground v.1.15,2013-03-24 08:22:00,
2013-03-24 03:28:00,28.1,24.2,30.05,North,349,1.0,1.0,85,0.00,,,0.00,Wunderground v.1.15,2013-03-24 08:28:00,
2013-03-24 03:34:00,28.1,24.2,30.05,NNE,13,1.0,1.0,85,0.00,,,0.00,Wunderground v.1.15,2013-03-24 08:34:00,
2013-03-24 03:40:00,28.1,24.2,30.05,NE,37,0.0,0.0,85,0.00,,,0.00,Wunderground v.1.15,2013-03-24 08:40:00,
2013-03-24 03:46:00,28.2,24.6,30.05,NNW,344,0.0,0.0,86,0.00,,,0.00,Wunderground v.1.15,2013-03-24 08:46:00,
2013-03-24 03:52:00,28.2,24.6,30.05,WNW,289,0.0,0.0,86,0.00,,,0.00,Wunderground v.1.15,2013-03-24 08:52:00,
2013-03-24 03:58:00,28.3,24.6,30.05,North,1,0.0,0.0,86,0.00,,,0.00,Wunderground v.1.15,2013-03-24 08:58:00,
2013-03-24 04:04:00,28.4,24.7,30.06,NW,306,0.0,0.0,86,0.00,,,0.00,Wunderground v.1.15,2013-03-24 09:04:00,
2013-03-24 04:10:00,28.5,24.8,30.06,WNW,291,0.0,0.0,86,0.00,,,0.00,Wunderground v.1.15,2013-03-24 09:10:00,
2013-03-24 04:16:00,28.6,24.9,30.05,NNE,32,0.0,1.0,86,0.00,,,0.00,Wunderground v.1.15,2013-03-24 09:16:00,
2013-03-24 04:22:00,28.6,24.9,30.06,NNE,21,0.0,0.0,86,0.00,,,0.00,Wunderground v.1.15,2013-03-24 09:22:00,
2013-03-24 04:28:00,28.7,25.0,30.06,NW,316,0.0,1.0,86,0.00,,,0.00,Wunderground v.1.15,2013-03-24 09:28:00,
2013-03-24 04:34:00,28.7,25.0,30.06,NNE,33,0.0,0.0,86,0.00,,,0.00,Wunderground v.1.15,2013-03-24 09:34:00,
2013-03-24 04:40:00,28.8,25.1,30.06,West,279,0.0,0.0,86,0.00,,,0.00,Wunderground v.1.15,2013-03-24 09:40:00,
2013-03-24 04:46:00,28.8,25.1,30.06,WNW,284,0.0,0.0,86,0.00,,,0.00,Wunderground v.1.15,2013-03-24 09:46:00,
2013-03-24 04:52:00,28.8,25.1,30.06,NW,306,0.0,0.0,86,0.00,,,0.00,Wunderground v.1.15,2013-03-24 09:52:00,
2013-03-24 04:58:00,28.9,25.2,30.06,NW,304,0.0,0.0,86,0.00,,,0.00,Wunderground v.1.15,2013-03-24 09:58:00,
2013-03-24 05:04:00,28.9,25.2,30.06,NNW,328,0.0,1.0,86,0.00,,,0.00,Wunderground v.1.15,2013-03-24 10:04:00,
2013-03-24 05:10:00,28.9,25.2,30.06,NE,46,0.0,0.0,86,0.00,,,0.00,Wunderground v.1.15,2013-03-24 10:10:00,
2013-03-24 05:16:00,29.0,25.3,30.05,NNE,25,0.0,0.0,86,0.00,,,0.00,Wunderground v.1.15,2013-03-24 10:16:00,
2013-03-24 05:22:00,29.0,25.3,30.05,North,360,0.0,1.0,86,0.00,,,0.00,Wunderground v.1.15,2013-03-24 10:22:00,
2013-03-24 05:28:00,29.0,25.3,30.05,North,11,0.0,1.0,86,0.00,,,0.00,Wunderground v.1.15,2013-03-24 10:28:00,
2013-03-24 05:34:00,29.0,25.3,30.05,WNW,294,0.0,1.0,86,0.00,,,0.00,Wunderground v.1.15,2013-03-24 10:34:00,
2013-03-24 05:40:00,29.0,25.3,30.04,ENE,58,0.0,0.0,86,0.00,,,0.00,Wunderground v.1.15,2013-03-24 10:40:00,
2013-03-24 05:46:00,29.0,25.3,30.04,NE,51,0.0,0.0,86,0.00,,,0.00,Wunderground v.1.15,2013-03-24 10:46:00,
2013-03-24 05:52:00,29.0,25.3,30.04,NE,36,0.0,0.0,86,0.00,,,0.00,Wunderground v.1.15,2013-03-24 10:52:00,
2013-03-24 05:58:00,29.0,25.3,30.04,NW,316,0.0,0.0,86,0.00,,,0.00,Wunderground v.1.15,2013-03-24 10:58:00,
2013-03-24 06:04:00,29.0,25.3,30.04,NE,49,0.0,1.0,86,0.00,,,0.00,Wunderground v.1.15,2013-03-24 11:04:00,
2013-03-24 06:10:00,29.0,25.3,30.04,WSW,255,0.0,0.0,86,0.00,,,0.00,Wunderground v.1.15,2013-03-24 11:10:00,
2013-03-24 06:16:00,29.0,25.6,30.04,ENE,58,0.0,0.0,87,0.00,,,0.00,Wunderground v.1.15,2013-03-24 11:16:00,
2013-03-24 06:22:00,29.0,25.6,30.04,NNE,30,1.0,2.0,87,0.00,,,0.00,Wunderground v.1.15,2013-03-24 11:22:00,
2013-03-24 06:28:00,29.1,25.7,30.04,NNE,16,1.0,2.0,87,0.00,,,0.00,Wunderground v.1.15,2013-03-24 11:28:00,
2013-03-24 06:34:00,29.1,25.4,30.04,NE,42,1.0,2.0,86,0.00,,,0.00,Wunderground v.1.15,2013-03-24 11:34:00,
2013-03-24 06:40:00,29.2,25.5,30.04,East,86,1.0,1.0,86,0.00,,,0.00,Wunderground v.1.15,2013-03-24 11:40:00,
2013-03-24 06:46:00,29.2,25.8,30.04,East,91,0.0,1.0,87,0.00,,,0.00,Wunderground v.1.15,2013-03-24 11:46:00,
2013-03-24 06:52:00,29.3,25.9,30.05,NNE,29,0.0,1.0,87,0.00,,,0.00,Wunderground v.1.15,2013-03-24 11:52:00,
2013-03-24 06:58:00,29.3,25.9,30.04,ENE,58,1.0,2.0,87,0.00,,,0.00,Wunderground v.1.15,2013-03-24 11:58:00,
2013-03-24 07:04:00,29.2,25.8,30.04,North,6,1.0,1.0,87,0.00,,,0.00,Wunderground v.1.15,2013-03-24 12:04:00,
2013-03-24 07:10:00,29.1,25.7,30.04,ENE,65,0.0,0.0,87,0.00,,,0.00,Wunderground v.1.15,2013-03-24 12:10:00,
2013-03-24 07:16:00,29.0,25.6,30.04,ENE,61,0.0,1.0,87,0.00,,,0.00,Wunderground v.1.15,2013-03-24 12:16:00,
2013-03-24 07:22:00,28.9,25.5,30.04,ENE,64,0.0,0.0,87,0.00,,,0.00,Wunderground v.1.15,2013-03-24 12:22:00,
2013-03-24 07:28:00,29.0,25.6,30.04,ENE,68,0.0,0.0,87,0.00,,,0.00,Wunderground v.1.15,2013-03-24 12:28:00,
2013-03-24 07:34:00,29.0,25.6,30.04,ESE,115,0.0,0.0,87,0.00,,,0.00,Wunderground v.1.15,2013-03-24 12:34:00,
2013-03-24 07:40:00,29.0,25.3,30.04,NW,322,0.0,2.0,86,0.00,,,0.00,Wunderground v.1.15,2013-03-24 12:40:00,
2013-03-24 07:46:00,28.9,25.0,30.04,SE,136,0.0,2.0,85,0.00,,,0.00,Wunderground v.1.15,2013-03-24 12:46:00,
2013-03-24 07:52:00,29.0,25.1,30.04,SSE,156,0.0,2.0,85,0.00,,,0.00,Wunderground v.1.15,2013-03-24 12:52:00,
2013-03-24 07:58:00,29.1,25.2,30.04,ENE,76,0.0,3.0,85,0.00,,,0.00,Wunderground v.1.15,2013-03-24 12:58:00,
2013-03-24 08:04:00,29.2,25.0,30.04,East,101,1.0,1.0,84,0.00,,,0.00,Wunderground v.1.15,2013-03-24 13:04:00,
2013-03-24 08:10:00,29.4,25.2,30.04,East,79,1.0,1.0,84,0.00,,,0.00,Wunderground v.1.15,2013-03-24 13:10:00,
2013-03-24 08:18:00,29.7,25.2,30.03,ENE,71,1.0,1.0,83,0.00,,,0.00,Wunderground v.1.15,2013-03-24 13:18:00,
2013-03-24 08:24:00,30.3,25.8,30.03,ESE,104,1.0,1.0,83,0.00,,,0.00,Wunderground v.1.15,2013-03-24 13:24:00,
2013-03-24 08:30:00,30.9,25.8,30.03,ENE,75,1.0,1.0,81,0.00,,,0.00,Wunderground v.1.15,2013-03-24 13:30:00,
2013-03-24 08:36:00,31.1,26.0,30.03,SE,138,1.0,1.0,81,0.00,,,0.00,Wunderground v.1.15,2013-03-24 13:36:00,
2013-03-24 08:42:00,31.1,25.7,30.03,SE,142,1.0,3.0,80,0.00,,,0.00,Wunderground v.1.15,2013-03-24 13:42:00,
2013-03-24 08:48:00,31.4,25.9,30.03,ESE,105,1.0,3.0,80,0.00,,,0.00,Wunderground v.1.15,2013-03-24 13:48:00,
2013-03-24 08:54:00,31.5,25.7,30.02,SE,127,0.0,0.0,79,0.00,,,0.00,Wunderground v.1.15,2013-03-24 13:54:00,
2013-03-24 09:00:00,31.6,25.5,30.02,ESE,105,1.0,1.0,78,0.00,,,0.00,Wunderground v.1.15,2013-03-24 14:00:00,
2013-03-24 09:06:00,31.5,25.4,30.03,ENE,71,1.0,2.0,78,0.00,,,0.00,Wunderground v.1.15,2013-03-24 14:06:00,
2013-03-24 09:12:00,31.3,24.9,30.02,SE,142,2.0,2.0,77,0.00,,,0.00,Wunderground v.1.15,2013-03-24 14:12:00,
2013-03-24 09:18:00,31.6,25.5,30.03,SE,130,2.0,2.0,78,0.00,,,0.00,Wunderground v.1.15,2013-03-24 14:18:00,
2013-03-24 09:24:00,31.6,25.2,30.03,ENE,68,1.0,3.0,77,0.00,,,0.00,Wunderground v.1.15,2013-03-24 14:24:00,
2013-03-24 09:30:00,31.7,25.6,30.03,SSE,149,1.0,1.0,78,0.00,,,0.00,Wunderground v.1.15,2013-03-24 14:30:00,
2013-03-24 09:38:00,32.4,25.7,30.02,SSE,153,1.0,2.0,76,0.00,,,0.00,Wunderground v.1.15,2013-03-24 14:38:00,
2013-03-24 09:44:00,32.8,26.1,30.02,ENE,65,1.0,1.0,76,0.00,,,0.00,Wunderground v.1.15,2013-03-24 14:44:00,
2013-03-24 09:50:00,33.1,26.0,30.02,SE,134,1.0,1.0,75,0.00,,,0.00,Wunderground v.1.15,2013-03-24 14:50:00,
2013-03-24 09:56:00,33.1,26.0,30.02,ENE,75,1.0,4.0,75,0.00,,,0.00,Wunderground v.1.15,2013-03-24 14:56:00,
2013-03-24 10:02:00,33.5,26.1,30.02,NE,42,1.0,1.0,74,0.00,,,0.00,Wunderground v.1.15,2013-03-24 15:02:00,
2013-03-24 10:08:00,33.5,26.1,30.02,SSE,153,1.0,2.0,74,0.00,,,0.00,Wunderground v.1.15,2013-03-24 15:08:00,
2013-03-24 10:14:00,33.5,25.4,30.02,ENE,70,1.0,2.0,72,0.00,,,0.00,Wunderground v.1.15,2013-03-24 15:14:00,
2013-03-24 10:20:00,33.1,25.1,30.02,East,88,1.0,1.0,72,0.00,,,0.00,Wunderground v.1.15,2013-03-24 15:20:00,
2013-03-24 10:28:00,33.5,25.4,30.02,NE,56,1.0,4.0,72,0.00,,,0.00,Wunderground v.1.15,2013-03-24 15:28:00,
2013-03-24 10:34:00,33.5,25.4,30.01,SE,139,1.0,1.0,72,0.00,,,0.00,Wunderground v.1.15,2013-03-24 15:34:00,
2013-03-24 10:40:00,34.0,25.6,30.01,ENE,71,1.0,2.0,71,0.00,,,0.00,Wunderground v.1.15,2013-03-24 15:40:00,
2013-03-24 10:48:00,34.1,25.3,30.01,NE,43,1.0,2.0,70,0.00,,,0.00,Wunderground v.1.15,2013-03-24 15:48:00,
2013-03-24 10:54:00,34.1,25.0,30.00,ENE,74,1.0,2.0,69,0.00,,,0.00,Wunderground v.1.15,2013-03-24 15:54:00,
2013-03-24 11:00:00,34.2,24.4,30.00,East,86,1.0,2.0,67,0.00,,,0.00,Wunderground v.1.15,2013-03-24 16:00:00,
2013-03-24 11:06:00,34.0,23.8,30.00,ENE,61,2.0,4.0,66,0.00,,,0.00,Wunderground v.1.15,2013-03-24 16:06:00,
2013-03-24 11:12:00,34.0,23.8,29.99,SE,142,2.0,4.0,66,0.00,,,0.00,Wunderground v.1.15,2013-03-24 16:12:00,
2013-03-24 11:18:00,34.2,24.4,29.99,NNE,26,2.0,4.0,67,0.00,,,0.00,Wunderground v.1.15,2013-03-24 16:18:00,
2013-03-24 11:24:00,34.1,23.9,29.99,NE,36,1.0,3.0,66,0.00,,,0.00,Wunderground v.1.15,2013-03-24 16:24:00,
2013-03-24 11:30:00,34.3,24.5,29.99,NE,49,2.0,2.0,67,0.00,,,0.00,Wunderground v.1.15,2013-03-24 16:30:00,
2013-03-24 11:36:00,34.4,24.2,29.98,North,11,2.0,2.0,66,0.00,,,0.00,Wunderground v.1.15,2013-03-24 16:36:00,
2013-03-24 11:42:00,34.8,24.6,29.98,North,359,2.0,2.0,66,0.00,,,0.00,Wunderground v.1.15,2013-03-24 16:42:00,
2013-03-24 11:48:00,35.2,24.2,29.98,NE,48,1.0,2.0,64,0.00,,,0.00,Wunderground v.1.15,2013-03-24 16:48:00,
2013-03-24 11:54:00,35.5,24.1,29.97,NNE,15,1.0,2.0,63,0.00,,,0.00,Wunderground v.1.15,2013-03-24 16:54:00,
2013-03-24 12:00:00,35.6,24.6,29.97,SSW,195,1.0,1.0,64,0.00,,,0.00,Wunderground v.1.15,2013-03-24 17:00:00,
2013-03-24 12:06:00,35.2,23.1,29.97,NNE,18,2.0,4.0,61,0.00,,,0.00,Wunderground v.1.15,2013-03-24 17:06:00,
2013-03-24 12:12:00,35.1,23.4,29.97,NNW,334,2.0,2.0,62,0.00,,,0.00,Wunderground v.1.15,2013-03-24 17:12:00,
2013-03-24 12:18:00,35.1,23.0,29.96,NW,322,2.0,3.0,61,0.00,,,0.00,Wunderground v.1.15,2013-03-24 17:18:00,
2013-03-24 12:24:00,34.8,25.3,29.96,North,5,2.0,2.0,68,0.00,,,0.00,Wunderground v.1.15,2013-03-24 17:24:00,
2013-03-24 12:30:00,34.5,26.1,29.96,WNW,302,2.0,2.0,71,0.00,,,0.00,Wunderground v.1.15,2013-03-24 17:30:00,
2013-03-24 12:36:00,34.2,26.4,29.96,NW,305,1.0,2.0,73,0.00,,,0.00,Wunderground v.1.15,2013-03-24 17:36:00,
2013-03-24 12:42:00,34.2,26.4,29.95,North,11,1.0,1.0,73,0.00,,,0.00,Wunderground v.1.15,2013-03-24 17:42:00,
2013-03-24 12:48:00,34.0,26.3,29.95,WNW,297,2.0,2.0,73,0.00,,,0.00,Wunderground v.1.15,2013-03-24 17:48:00,
2013-03-24 12:54:00,34.3,26.9,29.95,NNE,20,1.0,2.0,74,0.00,,,0.00,Wunderground v.1.15,2013-03-24 17:54:00,
2013-03-24 13:00:00,34.2,26.4,29.95,NE,37,2.0,3.0,73,0.00,,,0.00,Wunderground v.1.15,2013-03-24 18:00:00,
2013-03-24 13:08:00,33.9,25.5,29.95,NE,51,2.0,3.0,71,0.00,,,0.00,Wunderground v.1.15,2013-03-24 18:08:00,
2013-03-24 13:14:00,33.9,25.8,29.94,NE,54,2.0,4.0,72,0.00,,,0.00,Wunderground v.1.15,2013-03-24 18:14:00,
2013-03-24 13:20:00,34.2,25.4,29.94,North,1,2.0,2.0,70,0.00,,,0.00,Wunderground v.1.15,2013-03-24 18:20:00,
2013-03-24 13:26:00,34.4,24.9,29.94,East,84,2.0,4.0,68,0.00,,,0.00,Wunderground v.1.15,2013-03-24 18:26:00,
2013-03-24 13:32:00,34.6,25.5,29.93,NNE,12,2.0,4.0,69,0.00,,,0.00,Wunderground v.1.15,2013-03-24 18:32:00,
2013-03-24 13:38:00,34.6,25.1,29.93,NNE,13,2.0,4.0,68,0.00,,,0.00,Wunderground v.1.15,2013-03-24 18:38:00,
2013-03-24 13:44:00,34.5,25.0,29.92,NNE,29,2.0,4.0,68,0.00,,,0.00,Wunderground v.1.15,2013-03-24 18:44:00,
2013-03-24 13:50:00,34.3,24.5,29.92,East,83,2.0,4.0,67,0.00,,,0.00,Wunderground v.1.15,2013-03-24 18:50:00,
2013-03-24 13:58:00,34.2,24.7,29.91,NNE,18,2.0,4.0,68,0.00,,,0.00,Wunderground v.1.15,2013-03-24 18:58:00,
2013-03-24 14:04:00,34.0,24.5,29.91,NNE,31,3.0,3.0,68,0.00,,,0.00,Wunderground v.1.15,2013-03-24 19:04:00,
2013-03-24 14:10:00,34.0,24.5,29.91,North,357,3.0,3.0,68,0.00,,,0.00,Wunderground v.1.15,2013-03-24 19:10:00,
2013-03-24 14:16:00,34.0,24.9,29.91,North,4,3.0,4.0,69,0.00,,,0.00,Wunderground v.1.15,2013-03-24 19:16:00,
2013-03-24 14:22:00,34.0,24.9,29.90,NE,43,2.0,3.0,69,0.00,,,0.00,Wunderground v.1.15,2013-03-24 19:22:00,
2013-03-24 14:28:00,34.0,24.9,29.90,WNW,300,2.0,4.0,69,0.00,,,0.00,Wunderground v.1.15,2013-03-24 19:28:00,
2013-03-24 14:34:00,33.5,24.4,29.89,WNW,289,3.0,5.0,69,0.00,,,0.00,Wunderground v.1.15,2013-03-24 19:34:00,
2013-03-24 14:40:00,33.2,24.1,29.89,NE,36,3.0,3.0,69,0.00,,,0.00,Wunderground v.1.15,2013-03-24 19:40:00,
2013-03-24 14:46:00,33.0,24.3,29.89,North,11,3.0,4.0,70,0.00,,,0.00,Wunderground v.1.15,2013-03-24 19:46:00,
2013-03-24 14:52:00,33.0,23.9,29.89,NNE,21,3.0,3.0,69,0.00,,,0.00,Wunderground v.1.15,2013-03-24 19:52:00,
2013-03-24 14:58:00,33.1,24.0,29.88,SE,125,3.0,3.0,69,0.00,,,0.00,Wunderground v.1.15,2013-03-24 19:58:00,
2013-03-24 15:04:00,33.2,24.1,29.88,NE,46,2.0,4.0,69,0.00,,,0.00,Wunderground v.1.15,2013-03-24 20:04:00,
2013-03-24 15:10:00,33.2,24.5,29.88,NW,324,2.0,3.0,70,0.00,,,0.00,Wunderground v.1.15,2013-03-24 20:10:00,
2013-03-24 15:16:00,33.4,24.7,29.88,NE,44,2.0,3.0,70,0.00,,,0.00,Wunderground v.1.15,2013-03-24 20:16:00,
2013-03-24 15:22:00,33.5,24.4,29.88,ENE,58,2.0,5.0,69,0.00,,,0.00,Wunderground v.1.15,2013-03-24 20:22:00,
2013-03-24 15:28:00,33.6,24.5,29.87,NNE,21,1.0,5.0,69,0.00,,,0.00,Wunderground v.1.15,2013-03-24 20:28:00,
2013-03-24 15:34:00,33.6,24.9,29.87,West,271,1.0,1.0,70,0.00,,,0.00,Wunderground v.1.15,2013-03-24 20:34:00,
2013-03-24 15:40:00,33.7,24.6,29.87,NE,51,1.0,2.0,69,0.00,,,0.00,Wunderground v.1.15,2013-03-24 20:40:00,
2013-03-24 15:48:00,33.6,24.5,29.86,NNE,23,2.0,4.0,69,0.00,,,0.00,Wunderground v.1.15,2013-03-24 20:48:00,
2013-03-24 15:54:00,33.6,24.9,29.86,NNE,19,2.0,2.0,70,0.00,,,0.00,Wunderground v.1.15,2013-03-24 20:54:00,
2013-03-24 16:00:00,33.6,24.5,29.86,NW,320,1.0,1.0,69,0.00,,,0.00,Wunderground v.1.15,2013-03-24 21:00:00,
2013-03-24 16:06:00,33.6,24.5,29.86,ENE,63,2.0,2.0,69,0.00,,,0.00,Wunderground v.1.15,2013-03-24 21:06:00,
2013-03-24 16:12:00,33.6,24.2,29.86,WNW,302,1.0,4.0,68,0.00,,,0.00,Wunderground v.1.15,2013-03-24 21:12:00,
2013-03-24 16:18:00,33.6,24.5,29.85,ENE,58,1.0,4.0,69,0.00,,,0.00,Wunderground v.1.15,2013-03-24 21:18:00,
2013-03-24 16:24:00,33.6,24.5,29.85,West,274,1.0,1.0,69,0.00,,,0.00,Wunderground v.1.15,2013-03-24 21:24:00,
2013-03-24 16:30:00,33.5,24.4,29.85,NNE,29,1.0,2.0,69,0.00,,,0.00,Wunderground v.1.15,2013-03-24 21:30:00,
2013-03-24 16:36:00,33.5,24.4,29.85,NNE,20,2.0,2.0,69,0.00,,,0.00,Wunderground v.1.15,2013-03-24 21:36:00,
2013-03-24 16:42:00,33.5,24.1,29.85,North,350,1.0,3.0,68,0.00,,,0.00,Wunderground v.1.15,2013-03-24 21:42:00,
2013-03-24 16:48:00,33.4,24.0,29.85,NW,309,2.0,3.0,68,0.00,,,0.00,Wunderground v.1.15,2013-03-24 21:48:00,
2013-03-24 16:54:00,33.3,24.2,29.85,NNE,18,1.0,3.0,69,0.00,,,0.00,Wunderground v.1.15,2013-03-24 21:54:00,
2013-03-24 17:00:00,33.3,23.9,29.84,NNE,13,2.0,2.0,68,0.00,,,0.00,Wunderground v.1.15,2013-03-24 22:00:00,
2013-03-24 17:06:00,33.2,24.1,29.84,WNW,293,2.0,3.0,69,0.00,,,0.00,Wunderground v.1.15,2013-03-24 22:06:00,
2013-03-24 17:12:00,33.2,23.8,29.84,NNE,23,2.0,2.0,68,0.00,,,0.00,Wunderground v.1.15,2013-03-24 22:12:00,
2013-03-24 17:18:00,33.4,24.3,29.84,NE,46,1.0,3.0,69,0.00,,,0.00,Wunderground v.1.15,2013-03-24 22:18:00,
2013-03-24 17:24:00,33.3,24.2,29.84,NNW,342,1.0,2.0,69,0.00,,,0.00,Wunderground v.1.15,2013-03-24 22:24:00,
2013-03-24 17:30:00,33.4,24.3,29.84,WNW,284,1.0,1.0,69,0.00,,,0.00,Wunderground v.1.15,2013-03-24 22:30:00,
2013-03-24 17:36:00,33.4,25.0,29.84,NNE,27,1.0,1.0,71,0.00,,,0.00,Wunderground v.1.15,2013-03-24 22:36:00,
2013-03-24 17:42:00,33.3,24.9,29.84,NNW,343,1.0,1.0,71,0.00,,,0.00,Wunderground v.1.15,2013-03-24 22:42:00,
2013-03-24 17:48:00,33.2,24.8,29.84,ENE,71,1.0,1.0,71,0.00,,,0.00,Wunderground v.1.15,2013-03-24 22:48:00,
2013-03-24 17:54:00,33.2,24.8,29.84,NNE,32,1.0,2.0,71,0.00,,,0.00,Wunderground v.1.15,2013-03-24 22:54:00,
2013-03-24 18:00:00,33.2,24.8,29.84,North,6,2.0,2.0,71,0.00,,,0.00,Wunderground v.1.15,2013-03-24 23:00:00,
2013-03-24 18:06:00,33.2,24.8,29.84,East,87,1.0,4.0,71,0.00,,,0.00,Wunderground v.1.15,2013-03-24 23:06:00,
2013-03-24 18:12:00,33.1,24.7,29.84,North,5,1.0,2.0,71,0.00,,,0.00,Wunderground v.1.15,2013-03-24 23:12:00,
2013-03-24 18:18:00,33.2,24.8,29.84,NNE,15,2.0,3.0,71,0.00,,,0.00,Wunderground v.1.15,2013-03-24 23:18:00,
2013-03-24 18:24:00,33.2,24.8,29.84,NW,304,1.0,2.0,71,0.00,,,0.00,Wunderground v.1.15,2013-03-24 23:24:00,
2013-03-24 18:30:00,33.2,25.1,29.84,NNE,15,1.0,1.0,72,0.00,,,0.00,Wunderground v.1.15,2013-03-24 23:30:00,
2013-03-24 18:36:00,33.1,24.7,29.84,NE,46,1.0,3.0,71,0.00,,,0.00,Wunderground v.1.15,2013-03-24 23:36:00,
2013-03-24 18:42:00,33.3,23.9,29.84,NNW,338,1.0,1.0,68,0.00,,,0.00,Wunderground v.1.15,2013-03-24 23:42:00,
2013-03-24 18:48:00,33.3,23.2,29.84,ENE,74,2.0,2.0,66,0.00,,,0.00,Wunderground v.1.15,2013-03-24 23:48:00,
2013-03-24 18:54:00,33.2,23.4,29.84,ENE,59,2.0,2.0,67,0.00,,,0.00,Wunderground v.1.15,2013-03-24 23:54:00,
2013-03-24 19:00:00,33.0,23.2,29.84,NNE,15,1.0,2.0,67,0.00,,,0.00,Wunderground v.1.15,2013-03-25 00:00:00,
2013-03-24 19:06:00,32.8,23.4,29.84,ENE,63,1.0,2.0,68,0.00,,,0.00,Wunderground v.1.15,2013-03-25 00:06:00,
2013-03-24 19:12:00,32.7,23.6,29.84,NW,317,2.0,2.0,69,0.00,,,0.00,Wunderground v.1.15,2013-03-25 00:12:00,
2013-03-24 19:18:00,32.4,23.7,29.84,East,79,1.0,2.0,70,0.00,,,0.00,Wunderground v.1.15,2013-03-25 00:18:00,
2013-03-24 19:24:00,32.1,23.8,29.84,ENE,70,0.0,0.0,71,0.00,,,0.00,Wunderground v.1.15,2013-03-25 00:24:00,
2013-03-24 19:30:00,31.9,23.6,29.84,SE,128,0.0,0.0,71,0.00,,,0.00,Wunderground v.1.15,2013-03-25 00:30:00,
2013-03-24 19:36:00,31.7,23.4,29.84,East,89,0.0,0.0,71,0.00,,,0.00,Wunderground v.1.15,2013-03-25 00:36:00,
2013-03-24 19:42:00,31.4,22.7,29.84,NE,50,0.0,0.0,70,0.00,,,0.00,Wunderground v.1.15,2013-03-25 00:42:00,
2013-03-24 19:48:00,31.1,22.5,29.84,NE,47,0.0,0.0,70,0.00,,,0.00,Wunderground v.1.15,2013-03-25 00:48:00,
2013-03-24 19:54:00,30.9,22.3,29.84,NE,51,0.0,1.0,70,0.00,,,0.00,Wunderground v.1.15,2013-03-25 00:54:00,
2013-03-24 20:00:00,30.6,22.3,29.84,ENE,73,0.0,0.0,71,0.00,,,0.00,Wunderground v.1.15,2013-03-25 01:00:00,
2013-03-24 20:06:00,30.4,22.1,29.84,ENE,60,0.0,0.0,71,0.00,,,0.00,Wunderground v.1.15,2013-03-25 01:06:00,
2013-03-24 20:12:00,30.1,22.2,29.84,NNW,335,0.0,0.0,72,0.00,,,0.00,Wunderground v.1.15,2013-03-25 01:12:00,
2013-03-24 20:18:00,29.9,22.3,29.84,North,360,0.0,0.0,73,0.00,,,0.00,Wunderground v.1.15,2013-03-25 01:18:00,
2013-03-24 20:24:00,29.9,22.6,29.84,North,3,0.0,0.0,74,0.00,,,0.00,Wunderground v.1.15,2013-03-25 01:24:00,
2013-03-24 20:30:00,29.9,22.9,29.84,North,8,0.0,0.0,75,0.00,,,0.00,Wunderground v.1.15,2013-03-25 01:30:00,
2013-03-24 20:36:00,30.0,23.4,29.84,ENE,58,0.0,1.0,76,0.00,,,0.00,Wunderground v.1.15,2013-03-25 01:36:00,
2013-03-24 20:42:00,30.3,24.0,29.85,NE,46,0.0,1.0,77,0.00,,,0.00,Wunderground v.1.15,2013-03-25 01:42:00,
2013-03-24 20:48:00,30.4,23.7,29.85,NNE,21,0.0,1.0,76,0.00,,,0.00,Wunderground v.1.15,2013-03-25 01:48:00,
2013-03-24 20:54:00,30.4,24.1,29.85,NNW,338,0.0,0.0,77,0.00,,,0.00,Wunderground v.1.15,2013-03-25 01:54:00,
2013-03-24 21:00:00,30.4,24.1,29.85,North,8,0.0,0.0,77,0.00,,,0.00,Wunderground v.1.15,2013-03-25 02:00:00,
2013-03-24 21:06:00,30.2,23.9,29.85,ESE,103,0.0,0.0,77,0.00,,,0.00,Wunderground v.1.15,2013-03-25 02:06:00,
2013-03-24 21:12:00,30.0,23.7,29.85,ESE,103,0.0,0.0,77,0.00,,,0.00,Wunderground v.1.15,2013-03-25 02:12:00,
2013-03-24 21:18:00,29.9,23.9,29.85,North,352,0.0,0.0,78,0.00,,,0.00,Wunderground v.1.15,2013-03-25 02:18:00,
2013-03-24 21:24:00,29.8,23.8,29.85,NNE,29,0.0,0.0,78,0.00,,,0.00,Wunderground v.1.15,2013-03-25 02:24:00,
2013-03-24 21:30:00,29.7,23.7,29.85,North,349,0.0,0.0,78,0.00,,,0.00,Wunderground v.1.15,2013-03-25 02:30:00,
2013-03-24 21:36:00,29.8,23.8,29.85,North,6,0.0,0.0,78,0.00,,,0.00,Wunderground v.1.15,2013-03-25 02:36:00,
2013-03-24 21:42:00,29.8,23.8,29.84,NNE,20,0.0,0.0,78,0.00,,,0.00,Wunderground v.1.15,2013-03-25 02:42:00,
2013-03-24 21:48:00,29.8,23.8,29.84,NNW,334,0.0,2.0,78,0.00,,,0.00,Wunderground v.1.15,2013-03-25 02:48:00,
2013-03-24 21:54:00,29.8,23.8,29.84,North,352,0.0,0.0,78,0.00,,,0.00,Wunderground v.1.15,2013-03-25 02:54:00,
2013-03-24 22:00:00,29.8,23.8,29.84,North,356,0.0,1.0,78,0.00,,,0.00,Wunderground v.1.15,2013-03-25 03:00:00,
2013-03-24 22:06:00,29.8,23.8,29.84,NNW,340,0.0,1.0,78,0.00,,,0.00,Wunderground v.1.15,2013-03-25 03:06:00,
2013-03-24 22:12:00,29.7,23.7,29.84,NNE,23,0.0,1.0,78,0.00,,,0.00,Wunderground v.1.15,2013-03-25 03:12:00,
2013-03-24 22:18:00,29.6,23.9,29.84,NNW,339,0.0,1.0,79,0.00,,,0.00,Wunderground v.1.15,2013-03-25 03:18:00,
2013-03-24 22:24:00,29.6,23.9,29.84,North,5,0.0,1.0,79,0.00,,,0.00,Wunderground v.1.15,2013-03-25 03:24:00,
2013-03-24 22:30:00,29.7,24.0,29.84,North,1,1.0,1.0,79,0.00,,,0.00,Wunderground v.1.15,2013-03-25 03:30:00,
2013-03-24 22:36:00,29.7,24.3,29.84,ENE,70,1.0,2.0,80,0.00,,,0.00,Wunderground v.1.15,2013-03-25 03:36:00,
2013-03-24 22:42:00,29.7,24.0,29.84,NNE,29,1.0,2.0,79,0.00,,,0.00,Wunderground v.1.15,2013-03-25 03:42:00,
2013-03-24 22:48:00,29.7,24.3,29.84,NE,43,1.0,2.0,80,0.00,,,0.00,Wunderground v.1.15,2013-03-25 03:48:00,
2013-03-24 22:54:00,29.6,24.2,29.84,North,357,1.0,1.0,80,0.00,,,0.00,Wunderground v.1.15,2013-03-25 03:54:00,
2013-03-24 23:00:00,29.7,24.6,29.84,North,354,1.0,1.0,81,0.00,,,0.00,Wunderground v.1.15,2013-03-25 04:00:00,
2013-03-24 23:02:00,29.7,24.6,29.84,NW,310,1.0,1.0,81,0.00,,,0.00,Wunderground v.1.15,2013-03-25 04:02:00,
2013-03-24 23:04:00,29.6,24.5,29.84,NE,35,1.0,1.0,81,0.00,,,0.00,Wunderground v.1.15,2013-03-25 04:04:00,
2013-03-24 23:06:00,29.6,24.5,29.84,NE,49,1.0,1.0,81,0.00,,,0.00,Wunderground v.1.15,2013-03-25 04:06:00,
2013-03-24 23:12:00,29.7,24.9,29.84,NNE,33,1.0,1.0,82,0.00,,,0.00,Wunderground v.1.15,2013-03-25 04:12:00,
2013-03-24 23:18:00,29.7,24.9,29.84,NNE,13,1.0,1.0,82,0.00,,,0.00,Wunderground v.1.15,2013-03-25 04:18:00,
2013-03-24 23:24:00,29.8,25.0,29.84,NE,46,1.0,1.0,82,0.00,,,0.00,Wunderground v.1.15,2013-03-25 04:24:00,
2013-03-24 23:30:00,30.0,24.9,29.84,NE,47,1.0,2.0,81,0.00,,,0.00,Wunderground v.1.15,2013-03-25 04:30:00,
2013-03-24 23:36:00,30.3,25.2,29.84,NNE,32,1.0,3.0,81,0.00,,,0.00,Wunderground v.1.15,2013-03-25 04:36:00,
2013-03-24 23:42:00,30.4,25.3,29.84,NE,38,1.0,1.0,81,0.00,,,0.00,Wunderground v.1.15,2013-03-25 04:42:00,
2013-03-24 23:48:00,30.6,25.5,29.84,NNE,15,1.0,1.0,81,0.00,,,0.00,Wunderground v.1.15,2013-03-25 04:48:00,
2013-03-24 23:54:00,30.6,25.5,29.84,NE,39,1.0,1.0,81,0.00,,,0.00,Wunderground v.1.15,2013-03-25 04:54:00,